High Forest, Minnesota
Current Conditions -  °F | °C
As of 2:54 PM on Saturday 25 Oct 2014 (Local Time) from KRST Reporting Station
Clear Clear  
Wind Chill: 63°   Ceiling: Unl
Heat Index: 63°   Visibility: 10mi
Dew Point: 29°   Wind: 13mph
Humidity: 28%   Direction: 310°NW
Pressure: 30.05"   Gusts: 24mph
Location:  43.8884°N, 92.383°W
Report Text: KRST 251954Z 31011G21KT 10SM CLR 17/M02 A3005 RMK AO2 PK WND 31026/1936 SLP177 T01721017
Loading
Personal Weather Stations






























Interactive Weather Map
Tropical Storm Tracking
New forecast layout! Learn more

10-Day Weather Forecast

Advertisements
Track Severe Weather on mobile